• °C
  • Pobieranie danych...
wx

PRINT OUT SECTION, show »

METAR EPCE 271330Z 00000KT 9999 FEW005 BKN044 02/01
Q0994 RMK 017 095 7/2=

METAR EPDA 271330Z 16005KT 110V190 9999 OVC046 04/01
Q0995 RMK 036 082 8/8=

METAR EPDE 271330Z 25006KT 9999 OVC020 02/M01 Q0997 RMK 022 081 8/8=

METAR EPIR 271330Z AUTO 21002KT VV008 02/00 Q0995 RMK 020 089 ///=

METAR EPKS 271330Z 11007KT 1500 BR OVC004 01/00 Q0995 RMK 008 096
8/8=

METAR EPLK 271330Z 17004KT 130V210 9999 OVC006 00/00 Q0996 RMK 003
100 8/8=

METAR EPLY 271330Z 24004KT 4000 BR OVC004 00/M01 Q0996 RMK 003 095
8/8=

METAR EPMB 271330Z 28006KT 9999 SCT007 BKN050 03/03 Q0995 RMK 031 096
7/3=

METAR EPMI 271330Z 13007KT 9999 SCT090 02/M01 Q0994 RMK 023 081 3/3=

METAR EPMM 271330Z 27009KT 240V300 9999 OVC008 01/01 Q0995 RMK 013
100 8/8=

METAR EPNA 271330Z NIL=

METAR EPOK 271330Z 29006KT 7000 FEW003 SCT019 OVC034 02/01
Q0995 RMK 021 095 8/1 =

METAR EPPR 271330Z NIL=

METAR EPPW 271330Z VRB02KT 3000 BR SCT004 OVC005 01/01 Q0995 RMK 008
100 8/3=

METAR EPRA 271330Z 27004KT 9999 BKN017 02/M01 Q0997 RMK 021 079 6/6=

METAR EPSN 271330Z 13008KT 9999 FEW017 SCT100 02/M00 Q0994 RMK 023
082 4/2=

METAR EPTM 271330Z NIL=
 METAR EPDA
Lokalizacja:EPDA Darłowo
Czas:13:30 UTC
Średni kierunek wiatru:160 °
Średnia prędkość wiatru:5 węzłów
Kierunek wiatru zmienia się od:110 °
Kierunek wiatru zmienia się do:190 °
Widzialność:10 km i więcej
Pierwsza warstwa chmur:8/8, wysokość podstawy 4600 FT
Temperatura powietrza:4 °C
Temperatura punktu rosy:1 °C
Ciśnienie QNH:995 hPa
Dokładna temperatura powietrza:3,6 °C
Dokładna wilgotność względna:82 %
Zachmurzenie przez wszystkie piętra chmur:8/8
Zachmurzenie przez chmury niskie:8/8



IMGW-PIB Sites